Mayfield West, New South Wales

8:08 PM AEDT on December 18, 2014 (GMT +1100)
Warabrook | Change Station
CLOSE
Current Station
Personal Weather Station
Location: Warabrook, NEW SOUTH WALES
Elevation: 39 ft
Nearby Weather Stations

Elev 39 ft 32.88 °S, 151.72 °E | Updated 10 minutes ago

Clear
Clear
78.1 °F
Feels Like 80 °F
N
1.0
Wind Variable Wind from NE
Gusts 7.0 mph

Today
High -- | Low -- °F
--% Chance of Precip.
Yesterday
High -- | Low -- °F
Precip. -- in
5:39 AM 7:59 PM
Waning Crescent, 16% visible
Pressure 29.65 in
Visibility 6.2 miles
Clouds
Heat Index 80 °F
Dew Point 72 °F
Humidity 80%
Rainfall 0.02 in
Snow Depth Not available.
UV Not available.
Pollen Not available.
Air Quality Not available.
Flu Activity Not available.
METAR YWLM 180900Z AUTO 01010KT 9999 // NCD 25/21 Q1004

More Conditions Fewer Conditions

Pressure 29.65 in
Visibility 6.2 miles
Clouds
Heat Index 80 °F
Dew Point 72 °F
Humidity 80%
Rainfall 0.02 in
Snow Depth Not available.
UV Not available.
Pollen Not available.
Air Quality Not available.
Flu Activity Not available.
METAR YWLM 180900Z AUTO 01010KT 9999 // NCD 25/21 Q1004

More Conditions Fewer Conditions

10-Day Weather Forecast

Almanac

Astronomy

Dec. 18, 2014 Rise Set
Actual Time
Civil Twilight
Nautical Twilight
Astronomical Twilight
Moon
Length of Visible Light
Length of Day
Tomorrow will be .
, % of the Moon is Illuminated

Today's Extremes

Country Highs Country Lows

Community

WunderPhotos

Upload Photos

1,778,907 photos uploaded!

WunderBlogs® & News

Nearby

Air Quality

  Air Quality AQ Index Pollutant
Not available.

Snow Depth

Station Depth Elevation

Earthquake Activity

City Distance Mag. Time & Date
Minimum magnitude displayed is 2.5.

Coastal Water Temperatures

Place Temperature

Nearby Weather Stations